Main page
METAR-TAF:

METAR-TAF

Airports :

Colonel Carlos Concha Torres Airport

Esmeraldas, Ecuador

latitude: 00-58-43N, longitude: 079-37-36W, elevation: 10 m

Current weather observation

The report was made 1 hour and 4 minutes ago, at 19:00 UTC
Wind 8 kt from the West/Northwest
Temperature 27°C
Humidity 84%
Pressure 1011 hPa
Visibility 10 km or more
Scattered clouds at a height of 2300 ft
Broken clouds at a height of 8000 ft

METAR: SETN 241900Z 29008KT 9999 SCT023 BKN080 27/24 Q1010 A2984

Time: 15:04 (20:04 UTC)


TAF: missing

Weather observations and forecasts of more than 4000 airports (METAR and TAF reports).

The available stations are represented by yellow and red dots on the map.

Hover mouse over dot to see the name of the station.

Then click to see weather observations and forecasts.

To change the map : click on the green buttons with a black cross to zoom in, on the green button with a dash to zoom out, or on the green arrows for adjacent maps.


METAR-TAF: